KEMV

Details ICAO KEMV
Name EMPORIA GREENSVILLE RGNL
Region United States
Timezone America/New_York (UTC-4.0)
Plans Departing 1
Arriving 3
Stats Elevation 127 ft / 39 m (AMSL)
Location 36.686832° -77.482943°
Runways 1
Magnetic Variation 10.138° W
Sunrise 2018-05-21 09:59:40 UTC / 2018-05-21 05:59:40 Local
Sunset 2018-05-22 00:16:16 UTC / 2018-05-21 20:16:16 Local
Advertisement - Login to hide

Runways

ID Width Length Bearing (true) Bearing (mag) Surface Threshold Offset Overrun Length
15 100 ft / 30 m 5,045 ft / 1,538 m 146.68° 156.82° Asphalt 0 ft / 0 m 0 ft / 0 m
33 100 ft / 30 m 5,045 ft / 1,538 m 326.68° 336.82° Asphalt 0 ft / 0 m 0 ft / 0 m

Approach Navaids

Runway Type Ident Frequency Range Bearing (true) Bearing (mag) Slope Elevation
33 Localiser IEMV 108.75 MHz 18 nm / 33 km 326.62° 336.76° - 135 ft / 41 m (AMSL)

Map

Weather


0- 5 10 15 20 25 30 35+ Temperature / ° C

Clouds and Precipitation
Forecast for 2018-05-22 00:00 UTC. Updated 2 hours ago

Ground ~20,000 ft ~40,000 ft Winds

METAR

KEMV 220055Z AUTO 00000KT 10SM OVC011 18/17 A3016 RMK AO2 LTG DSNT S

TAF

Not found

Frequencies

Recorded 124.17 MHz AWOS 3
Unicom 123.00 MHz CTAF/UNICOM
Warning: Do not use this data for real-world aviation or navigation. No guarantee of current accuracy is given.